sensor_id;sensor_type;location;lat;lon;timestamp;temperature;humidity
20349;DHT22;10332;50.208;18.988;2023-02-04T00:00:25;3.90;99.90
20349;DHT22;10332;50.208;18.988;2023-02-04T00:03:13;3.90;99.90
20349;DHT22;10332;50.208;18.988;2023-02-04T00:05:42;3.90;99.90
20349;DHT22;10332;50.208;18.988;2023-02-04T00:08:10;3.90;99.90
20349;DHT22;10332;50.208;18.988;2023-02-04T00:10:37;3.90;99.90
20349;DHT22;10332;50.208;18.988;2023-02-04T00:13:05;3.90;99.90
20349;DHT22;10332;50.208;18.988;2023-02-04T00:15:32;3.80;99.90
20349;DHT22;10332;50.208;18.988;2023-02-04T00:18:00;3.90;99.90
20349;DHT22;10332;50.208;18.988;2023-02-04T00:20:27;3.80;99.90
20349;DHT22;10332;50.208;18.988;2023-02-04T00:22:55;3.90;99.90
20349;DHT22;10332;50.208;18.988;2023-02-04T00:25:23;3.90;99.90
20349;DHT22;10332;50.208;18.988;2023-02-04T00:27:50;3.90;99.90
20349;DHT22;10332;50.208;18.988;2023-02-04T00:30:18;3.90;99.90
20349;DHT22;10332;50.208;18.988;2023-02-04T00:32:45;3.90;99.90
20349;DHT22;10332;50.208;18.988;2023-02-04T00:35:13;3.90;99.90
20349;DHT22;10332;50.208;18.988;2023-02-04T00:37:40;4.00;99.90
20349;DHT22;10332;50.208;18.988;2023-02-04T00:40:08;3.90;99.90
20349;DHT22;10332;50.208;18.988;2023-02-04T00:42:37;4.00;99.90
20349;DHT22;10332;50.208;18.988;2023-02-04T00:45:04;4.00;99.90
20349;DHT22;10332;50.208;18.988;2023-02-04T00:47:32;3.90;99.90
20349;DHT22;10332;50.208;18.988;2023-02-04T00:49:59;3.90;99.90
20349;DHT22;10332;50.208;18.988;2023-02-04T00:52:27;3.90;99.90
20349;DHT22;10332;50.208;18.988;2023-02-04T00:54:55;3.90;99.90
20349;DHT22;10332;50.208;18.988;2023-02-04T00:57:22;3.90;99.90
20349;DHT22;10332;50.208;18.988;2023-02-04T00:59:49;3.90;99.90
20349;DHT22;10332;50.208;18.988;2023-02-04T01:02:17;3.90;99.90
20349;DHT22;10332;50.208;18.988;2023-02-04T01:04:44;3.90;99.90
20349;DHT22;10332;50.208;18.988;2023-02-04T01:07:12;3.90;99.90
20349;DHT22;10332;50.208;18.988;2023-02-04T01:09:39;3.80;99.90
20349;DHT22;10332;50.208;18.988;2023-02-04T01:12:07;3.80;99.90
20349;DHT22;10332;50.208;18.988;2023-02-04T01:14:34;3.80;99.90
20349;DHT22;10332;50.208;18.988;2023-02-04T01:17:02;3.80;99.90
20349;DHT22;10332;50.208;18.988;2023-02-04T01:19:29;3.80;99.90
20349;DHT22;10332;50.208;18.988;2023-02-04T01:21:57;3.80;99.90
20349;DHT22;10332;50.208;18.988;2023-02-04T01:24:24;3.80;99.90
20349;DHT22;10332;50.208;18.988;2023-02-04T01:26:52;3.80;99.90
20349;DHT22;10332;50.208;18.988;2023-02-04T01:29:19;3.80;99.90
20349;DHT22;10332;50.208;18.988;2023-02-04T01:31:46;3.80;99.90
20349;DHT22;10332;50.208;18.988;2023-02-04T01:34:14;3.80;99.90
20349;DHT22;10332;50.208;18.988;2023-02-04T01:36:41;3.80;99.90
20349;DHT22;10332;50.208;18.988;2023-02-04T01:39:09;3.80;99.90
20349;DHT22;10332;50.208;18.988;2023-02-04T01:41:36;3.80;99.90
20349;DHT22;10332;50.208;18.988;2023-02-04T01:44:04;3.80;99.90
20349;DHT22;10332;50.208;18.988;2023-02-04T01:46:32;3.90;99.90
20349;DHT22;10332;50.208;18.988;2023-02-04T01:49:02;3.90;99.90
20349;DHT22;10332;50.208;18.988;2023-02-04T01:51:31;3.90;99.90
20349;DHT22;10332;50.208;18.988;2023-02-04T01:53:59;3.90;99.90
20349;DHT22;10332;50.208;18.988;2023-02-04T01:56:29;3.90;99.90
20349;DHT22;10332;50.208;18.988;2023-02-04T01:58:57;3.90;99.90
20349;DHT22;10332;50.208;18.988;2023-02-04T02:01:37;3.80;99.90
20349;DHT22;10332;50.208;18.988;2023-02-04T02:04:09;3.80;99.90
20349;DHT22;10332;50.208;18.988;2023-02-04T02:06:41;3.70;99.90
20349;DHT22;10332;50.208;18.988;2023-02-04T02:09:14;3.70;99.90
20349;DHT22;10332;50.208;18.988;2023-02-04T02:11:42;3.70;99.90
20349;DHT22;10332;50.208;18.988;2023-02-04T02:14:10;3.70;99.90
20349;DHT22;10332;50.208;18.988;2023-02-04T02:16:38;3.70;99.90
20349;DHT22;10332;50.208;18.988;2023-02-04T02:19:09;3.70;99.90
20349;DHT22;10332;50.208;18.988;2023-02-04T02:21:52;3.70;99.90
20349;DHT22;10332;50.208;18.988;2023-02-04T02:24:27;3.60;99.90
20349;DHT22;10332;50.208;18.988;2023-02-04T02:26:57;3.60;99.90
20349;DHT22;10332;50.208;18.988;2023-02-04T02:29:28;3.60;99.90
20349;DHT22;10332;50.208;18.988;2023-02-04T02:31:56;3.60;99.90
20349;DHT22;10332;50.208;18.988;2023-02-04T02:34:28;3.50;99.90
20349;DHT22;10332;50.208;18.988;2023-02-04T02:36:58;3.50;99.90
20349;DHT22;10332;50.208;18.988;2023-02-04T02:39:27;3.50;99.90
20349;DHT22;10332;50.208;18.988;2023-02-04T02:41:56;3.40;99.90
20349;DHT22;10332;50.208;18.988;2023-02-04T02:44:25;3.30;99.90
20349;DHT22;10332;50.208;18.988;2023-02-04T02:46:53;3.30;99.90
20349;DHT22;10332;50.208;18.988;2023-02-04T02:49:21;3.20;99.90
20349;DHT22;10332;50.208;18.988;2023-02-04T02:51:49;3.20;99.90
20349;DHT22;10332;50.208;18.988;2023-02-04T02:54:26;3.10;99.90
20349;DHT22;10332;50.208;18.988;2023-02-04T02:56:56;3.00;99.90
20349;DHT22;10332;50.208;18.988;2023-02-04T02:59:26;3.00;99.90
20349;DHT22;10332;50.208;18.988;2023-02-04T03:01:57;2.90;99.90
20349;DHT22;10332;50.208;18.988;2023-02-04T03:04:30;2.80;99.90
20349;DHT22;10332;50.208;18.988;2023-02-04T03:07:03;2.80;99.90
20349;DHT22;10332;50.208;18.988;2023-02-04T03:09:32;2.80;99.90
20349;DHT22;10332;50.208;18.988;2023-02-04T03:12:01;2.70;99.90
20349;DHT22;10332;50.208;18.988;2023-02-04T03:14:32;2.70;99.90
20349;DHT22;10332;50.208;18.988;2023-02-04T03:17:01;2.60;99.90
20349;DHT22;10332;50.208;18.988;2023-02-04T03:19:32;2.60;99.90
20349;DHT22;10332;50.208;18.988;2023-02-04T03:22:03;2.60;99.90
20349;DHT22;10332;50.208;18.988;2023-02-04T03:24:32;2.50;99.90
20349;DHT22;10332;50.208;18.988;2023-02-04T03:27:00;2.50;99.90
20349;DHT22;10332;50.208;18.988;2023-02-04T03:29:27;2.50;99.90
20349;DHT22;10332;50.208;18.988;2023-02-04T03:31:56;2.40;99.90
20349;DHT22;10332;50.208;18.988;2023-02-04T03:34:26;2.40;99.90
20349;DHT22;10332;50.208;18.988;2023-02-04T03:36:54;2.40;99.90
20349;DHT22;10332;50.208;18.988;2023-02-04T03:39:21;2.40;99.90
20349;DHT22;10332;50.208;18.988;2023-02-04T03:41:48;2.40;99.90
20349;DHT22;10332;50.208;18.988;2023-02-04T03:44:16;2.40;99.90
20349;DHT22;10332;50.208;18.988;2023-02-04T03:46:44;2.40;99.90
20349;DHT22;10332;50.208;18.988;2023-02-04T03:49:12;2.40;99.90
20349;DHT22;10332;50.208;18.988;2023-02-04T03:51:39;2.40;99.90
20349;DHT22;10332;50.208;18.988;2023-02-04T03:54:07;2.40;99.90
20349;DHT22;10332;50.208;18.988;2023-02-04T03:56:34;2.40;99.90
20349;DHT22;10332;50.208;18.988;2023-02-04T03:59:02;2.40;99.90
20349;DHT22;10332;50.208;18.988;2023-02-04T04:01:29;2.50;99.90
20349;DHT22;10332;50.208;18.988;2023-02-04T04:03:57;2.40;99.90
20349;DHT22;10332;50.208;18.988;2023-02-04T04:06:24;2.40;99.90
20349;DHT22;10332;50.208;18.988;2023-02-04T04:08:52;2.40;99.90
20349;DHT22;10332;50.208;18.988;2023-02-04T04:11:19;2.30;99.90
20349;DHT22;10332;50.208;18.988;2023-02-04T04:13:47;2.30;99.90
20349;DHT22;10332;50.208;18.988;2023-02-04T04:16:15;2.20;99.90
20349;DHT22;10332;50.208;18.988;2023-02-04T04:18:42;2.20;99.90
20349;DHT22;10332;50.208;18.988;2023-02-04T04:21:10;2.10;99.90
20349;DHT22;10332;50.208;18.988;2023-02-04T04:23:37;2.00;99.90
20349;DHT22;10332;50.208;18.988;2023-02-04T04:26:05;1.90;99.90
20349;DHT22;10332;50.208;18.988;2023-02-04T04:28:32;1.80;99.90
20349;DHT22;10332;50.208;18.988;2023-02-04T04:31:00;1.80;99.90
20349;DHT22;10332;50.208;18.988;2023-02-04T04:33:27;1.80;99.90
20349;DHT22;10332;50.208;18.988;2023-02-04T04:35:55;1.70;99.90
20349;DHT22;10332;50.208;18.988;2023-02-04T04:38:22;1.70;99.90
20349;DHT22;10332;50.208;18.988;2023-02-04T04:40:50;1.60;99.90
20349;DHT22;10332;50.208;18.988;2023-02-04T04:43:17;1.50;99.90
20349;DHT22;10332;50.208;18.988;2023-02-04T04:45:44;1.40;99.90
20349;DHT22;10332;50.208;18.988;2023-02-04T04:48:12;1.30;99.90
20349;DHT22;10332;50.208;18.988;2023-02-04T04:50:40;1.30;99.90
20349;DHT22;10332;50.208;18.988;2023-02-04T04:53:07;1.30;99.90
20349;DHT22;10332;50.208;18.988;2023-02-04T04:55:37;1.20;99.90
20349;DHT22;10332;50.208;18.988;2023-02-04T04:58:06;1.20;99.90
20349;DHT22;10332;50.208;18.988;2023-02-04T05:00:34;1.20;99.90
20349;DHT22;10332;50.208;18.988;2023-02-04T05:03:02;1.20;99.90
20349;DHT22;10332;50.208;18.988;2023-02-04T05:05:29;1.10;99.90
20349;DHT22;10332;50.208;18.988;2023-02-04T05:07:57;1.10;99.90
20349;DHT22;10332;50.208;18.988;2023-02-04T05:10:25;1.10;99.90
20349;DHT22;10332;50.208;18.988;2023-02-04T05:12:52;1.10;99.90
20349;DHT22;10332;50.208;18.988;2023-02-04T05:15:20;1.10;99.90
20349;DHT22;10332;50.208;18.988;2023-02-04T05:17:47;1.10;99.90
20349;DHT22;10332;50.208;18.988;2023-02-04T05:20:15;1.00;99.90
20349;DHT22;10332;50.208;18.988;2023-02-04T05:22:42;1.00;99.90
20349;DHT22;10332;50.208;18.988;2023-02-04T05:25:10;1.00;99.90
20349;DHT22;10332;50.208;18.988;2023-02-04T05:27:37;1.00;99.90
20349;DHT22;10332;50.208;18.988;2023-02-04T05:30:05;1.00;99.90
20349;DHT22;10332;50.208;18.988;2023-02-04T05:32:32;1.00;99.90
20349;DHT22;10332;50.208;18.988;2023-02-04T05:35:00;1.00;99.90
20349;DHT22;10332;50.208;18.988;2023-02-04T05:37:27;0.90;99.90
20349;DHT22;10332;50.208;18.988;2023-02-04T05:39:55;0.90;99.90
20349;DHT22;10332;50.208;18.988;2023-02-04T05:42:22;0.90;99.90
20349;DHT22;10332;50.208;18.988;2023-02-04T05:44:50;0.90;99.90
20349;DHT22;10332;50.208;18.988;2023-02-04T05:47:17;0.80;99.90
20349;DHT22;10332;50.208;18.988;2023-02-04T05:49:46;0.80;99.90
20349;DHT22;10332;50.208;18.988;2023-02-04T05:52:13;0.80;99.90
20349;DHT22;10332;50.208;18.988;2023-02-04T05:54:41;0.80;99.90
20349;DHT22;10332;50.208;18.988;2023-02-04T05:57:08;0.80;99.90
20349;DHT22;10332;50.208;18.988;2023-02-04T05:59:36;0.80;99.90
20349;DHT22;10332;50.208;18.988;2023-02-04T06:02:03;0.80;99.90
20349;DHT22;10332;50.208;18.988;2023-02-04T06:04:31;0.80;99.90
20349;DHT22;10332;50.208;18.988;2023-02-04T06:06:58;0.80;99.90
20349;DHT22;10332;50.208;18.988;2023-02-04T06:09:26;0.80;99.90
20349;DHT22;10332;50.208;18.988;2023-02-04T06:11:53;0.80;99.90
20349;DHT22;10332;50.208;18.988;2023-02-04T06:14:20;0.80;99.90
20349;DHT22;10332;50.208;18.988;2023-02-04T06:16:48;0.80;99.90
20349;DHT22;10332;50.208;18.988;2023-02-04T06:19:15;0.80;99.90
20349;DHT22;10332;50.208;18.988;2023-02-04T06:21:43;0.80;99.90
20349;DHT22;10332;50.208;18.988;2023-02-04T06:24:10;0.70;99.90
20349;DHT22;10332;50.208;18.988;2023-02-04T06:26:38;0.80;99.90
20349;DHT22;10332;50.208;18.988;2023-02-04T06:29:05;0.80;99.90
20349;DHT22;10332;50.208;18.988;2023-02-04T06:31:33;0.80;99.90
20349;DHT22;10332;50.208;18.988;2023-02-04T06:34:00;0.80;99.90
20349;DHT22;10332;50.208;18.988;2023-02-04T06:36:28;0.80;99.90
20349;DHT22;10332;50.208;18.988;2023-02-04T06:38:56;0.80;99.90
20349;DHT22;10332;50.208;18.988;2023-02-04T06:41:23;0.80;99.90
20349;DHT22;10332;50.208;18.988;2023-02-04T06:43:51;0.80;99.90
20349;DHT22;10332;50.208;18.988;2023-02-04T06:46:18;0.80;99.90
20349;DHT22;10332;50.208;18.988;2023-02-04T06:48:46;0.80;99.90
20349;DHT22;10332;50.208;18.988;2023-02-04T06:51:14;0.80;99.90
20349;DHT22;10332;50.208;18.988;2023-02-04T06:53:41;0.80;99.90
20349;DHT22;10332;50.208;18.988;2023-02-04T06:56:10;0.80;99.90
20349;DHT22;10332;50.208;18.988;2023-02-04T06:58:38;0.80;99.90
20349;DHT22;10332;50.208;18.988;2023-02-04T07:01:05;0.80;99.90
20349;DHT22;10332;50.208;18.988;2023-02-04T07:03:33;0.80;99.90
20349;DHT22;10332;50.208;18.988;2023-02-04T07:06:01;0.80;99.90
20349;DHT22;10332;50.208;18.988;2023-02-04T07:08:28;0.80;99.90
20349;DHT22;10332;50.208;18.988;2023-02-04T07:10:56;0.90;99.90
20349;DHT22;10332;50.208;18.988;2023-02-04T07:13:23;0.90;99.90
20349;DHT22;10332;50.208;18.988;2023-02-04T07:15:51;0.80;99.90
20349;DHT22;10332;50.208;18.988;2023-02-04T07:18:19;0.90;99.90
20349;DHT22;10332;50.208;18.988;2023-02-04T07:20:46;0.90;99.90
20349;DHT22;10332;50.208;18.988;2023-02-04T07:23:14;0.90;99.90
20349;DHT22;10332;50.208;18.988;2023-02-04T07:25:41;0.90;99.90
20349;DHT22;10332;50.208;18.988;2023-02-04T07:28:10;1.00;99.90
20349;DHT22;10332;50.208;18.988;2023-02-04T07:30:38;1.10;99.90
20349;DHT22;10332;50.208;18.988;2023-02-04T07:33:06;1.10;99.90
20349;DHT22;10332;50.208;18.988;2023-02-04T07:35:33;1.10;99.90
20349;DHT22;10332;50.208;18.988;2023-02-04T07:38:01;1.10;99.90
20349;DHT22;10332;50.208;18.988;2023-02-04T07:40:28;1.10;99.90
20349;DHT22;10332;50.208;18.988;2023-02-04T07:42:56;1.10;99.90
20349;DHT22;10332;50.208;18.988;2023-02-04T07:45:24;1.10;99.90
20349;DHT22;10332;50.208;18.988;2023-02-04T07:47:51;1.10;99.90
20349;DHT22;10332;50.208;18.988;2023-02-04T07:50:19;1.10;99.90
20349;DHT22;10332;50.208;18.988;2023-02-04T07:52:47;1.20;99.90
20349;DHT22;10332;50.208;18.988;2023-02-04T07:55:14;1.20;99.40
20349;DHT22;10332;50.208;18.988;2023-02-04T07:57:42;1.20;99.40
20349;DHT22;10332;50.208;18.988;2023-02-04T08:00:10;1.20;99.20
20349;DHT22;10332;50.208;18.988;2023-02-04T08:02:40;1.30;99.90
20349;DHT22;10332;50.208;18.988;2023-02-04T08:05:08;1.40;98.60
20349;DHT22;10332;50.208;18.988;2023-02-04T08:07:36;1.40;95.30
20349;DHT22;10332;50.208;18.988;2023-02-04T08:10:04;1.40;94.00
20349;DHT22;10332;50.208;18.988;2023-02-04T08:12:33;1.40;94.40
20349;DHT22;10332;50.208;18.988;2023-02-04T08:15:00;1.40;94.10
20349;DHT22;10332;50.208;18.988;2023-02-04T08:17:28;1.30;92.70
20349;DHT22;10332;50.208;18.988;2023-02-04T08:19:55;1.30;94.00
20349;DHT22;10332;50.208;18.988;2023-02-04T08:22:23;1.30;94.90
20349;DHT22;10332;50.208;18.988;2023-02-04T08:24:51;1.30;88.30
20349;DHT22;10332;50.208;18.988;2023-02-04T08:27:18;1.20;89.10
20349;DHT22;10332;50.208;18.988;2023-02-04T08:29:46;1.30;91.50
20349;DHT22;10332;50.208;18.988;2023-02-04T08:32:13;1.30;91.90
20349;DHT22;10332;50.208;18.988;2023-02-04T08:34:40;1.40;92.00
20349;DHT22;10332;50.208;18.988;2023-02-04T08:37:08;1.40;90.00
20349;DHT22;10332;50.208;18.988;2023-02-04T08:39:35;1.50;86.30
20349;DHT22;10332;50.208;18.988;2023-02-04T08:42:04;1.60;85.70
20349;DHT22;10332;50.208;18.988;2023-02-04T08:44:31;1.70;82.00
20349;DHT22;10332;50.208;18.988;2023-02-04T08:46:59;1.80;79.20
20349;DHT22;10332;50.208;18.988;2023-02-04T08:49:26;1.90;80.30
20349;DHT22;10332;50.208;18.988;2023-02-04T08:51:54;2.00;78.20
20349;DHT22;10332;50.208;18.988;2023-02-04T08:54:21;2.20;77.90
20349;DHT22;10332;50.208;18.988;2023-02-04T08:56:49;2.70;75.30
20349;DHT22;10332;50.208;18.988;2023-02-04T08:59:16;3.20;69.00
20349;DHT22;10332;50.208;18.988;2023-02-04T09:01:44;3.90;64.80
20349;DHT22;10332;50.208;18.988;2023-02-04T09:04:21;4.70;60.40
20349;DHT22;10332;50.208;18.988;2023-02-04T09:06:50;7.10;64.60
20349;DHT22;10332;50.208;18.988;2023-02-04T09:09:18;9.60;42.90
20349;DHT22;10332;50.208;18.988;2023-02-04T09:11:48;10.70;39.80
20349;DHT22;10332;50.208;18.988;2023-02-04T09:14:16;11.80;31.20
20349;DHT22;10332;50.208;18.988;2023-02-04T09:16:43;11.10;7.10
20349;DHT22;10332;50.208;18.988;2023-02-04T09:19:11;9.80;4.40
20349;DHT22;10332;50.208;18.988;2023-02-04T09:21:42;8.40;10.60
20349;DHT22;10332;50.208;18.988;2023-02-04T09:24:09;7.20;27.00
20349;DHT22;10332;50.208;18.988;2023-02-04T09:26:37;6.50;40.00
20349;DHT22;10332;50.208;18.988;2023-02-04T09:29:04;6.20;45.40
20349;DHT22;10332;50.208;18.988;2023-02-04T09:31:32;6.10;44.00
20349;DHT22;10332;50.208;18.988;2023-02-04T09:33:59;5.80;41.00
20349;DHT22;10332;50.208;18.988;2023-02-04T09:36:27;5.50;40.50
20349;DHT22;10332;50.208;18.988;2023-02-04T09:38:56;5.30;41.60
20349;DHT22;10332;50.208;18.988;2023-02-04T09:41:24;5.40;41.70
20349;DHT22;10332;50.208;18.988;2023-02-04T09:43:51;5.60;45.30
20349;DHT22;10332;50.208;18.988;2023-02-04T09:46:22;7.50;45.20
20349;DHT22;10332;50.208;18.988;2023-02-04T09:48:51;10.20;24.90
20349;DHT22;10332;50.208;18.988;2023-02-04T09:51:22;10.30;6.60
20349;DHT22;10332;50.208;18.988;2023-02-04T09:53:57;9.60;1.00
20349;DHT22;10332;50.208;18.988;2023-02-04T09:56:46;11.50;1.00
20349;DHT22;10332;50.208;18.988;2023-02-04T09:59:17;16.30;1.00
20349;DHT22;10332;50.208;18.988;2023-02-04T10:02:01;20.10;1.00
20349;DHT22;10332;50.208;18.988;2023-02-04T10:04:39;23.00;1.00
20349;DHT22;10332;50.208;18.988;2023-02-04T10:07:11;23.10;1.00
20349;DHT22;10332;50.208;18.988;2023-02-04T10:09:39;21.10;1.00
20349;DHT22;10332;50.208;18.988;2023-02-04T10:12:07;18.30;1.00
20349;DHT22;10332;50.208;18.988;2023-02-04T10:14:34;17.80;1.00
20349;DHT22;10332;50.208;18.988;2023-02-04T10:17:02;16.20;1.00
20349;DHT22;10332;50.208;18.988;2023-02-04T10:19:29;14.30;1.00
20349;DHT22;10332;50.208;18.988;2023-02-04T10:21:57;12.60;1.00
20349;DHT22;10332;50.208;18.988;2023-02-04T10:24:26;11.20;1.00
20349;DHT22;10332;50.208;18.988;2023-02-04T10:27:07;10.10;1.00
20349;DHT22;10332;50.208;18.988;2023-02-04T10:29:36;9.30;1.00
20349;DHT22;10332;50.208;18.988;2023-02-04T10:32:04;9.30;1.00
20349;DHT22;10332;50.208;18.988;2023-02-04T10:34:36;8.70;1.00
20349;DHT22;10332;50.208;18.988;2023-02-04T10:37:18;8.10;1.00
20349;DHT22;10332;50.208;18.988;2023-02-04T10:39:47;7.40;1.00
20349;DHT22;10332;50.208;18.988;2023-02-04T10:42:27;8.30;1.00
20349;DHT22;10332;50.208;18.988;2023-02-04T10:44:57;12.00;1.00
20349;DHT22;10332;50.208;18.988;2023-02-04T10:47:27;14.40;1.00
20349;DHT22;10332;50.208;18.988;2023-02-04T10:50:06;14.50;1.00
20349;DHT22;10332;50.208;18.988;2023-02-04T10:52:50;16.20;1.00
20349;DHT22;10332;50.208;18.988;2023-02-04T10:55:22;17.10;1.00
20349;DHT22;10332;50.208;18.988;2023-02-04T10:57:51;19.70;1.00
20349;DHT22;10332;50.208;18.988;2023-02-04T11:00:21;22.70;1.00
20349;DHT22;10332;50.208;18.988;2023-02-04T11:02:58;23.20;1.00
20349;DHT22;10332;50.208;18.988;2023-02-04T11:05:32;23.20;1.00
20349;DHT22;10332;50.208;18.988;2023-02-04T11:08:03;20.70;1.00
20349;DHT22;10332;50.208;18.988;2023-02-04T11:10:44;18.10;1.00
20349;DHT22;10332;50.208;18.988;2023-02-04T11:13:24;16.90;1.00
20349;DHT22;10332;50.208;18.988;2023-02-04T11:16:32;16.40;1.00
20349;DHT22;10332;50.208;18.988;2023-02-04T11:19:10;16.20;1.00
20349;DHT22;10332;50.208;18.988;2023-02-04T11:29:24;14.90;1.00
20349;DHT22;10332;50.208;18.988;2023-02-04T11:32:31;16.40;1.00
20349;DHT22;10332;50.208;18.988;2023-02-04T11:35:26;18.70;1.00
20349;DHT22;10332;50.208;18.988;2023-02-04T11:37:55;21.40;1.00
20349;DHT22;10332;50.208;18.988;2023-02-04T11:40:34;22.50;1.00
20349;DHT22;10332;50.208;18.988;2023-02-04T11:43:14;21.70;1.00
20349;DHT22;10332;50.208;18.988;2023-02-04T11:45:43;20.20;1.00
20349;DHT22;10332;50.208;18.988;2023-02-04T11:48:18;18.90;1.00
20349;DHT22;10332;50.208;18.988;2023-02-04T11:50:55;18.30;1.00
20349;DHT22;10332;50.208;18.988;2023-02-04T11:53:31;17.10;1.00
20349;DHT22;10332;50.208;18.988;2023-02-04T11:56:00;16.90;1.00
20349;DHT22;10332;50.208;18.988;2023-02-04T11:58:28;17.80;1.00
20349;DHT22;10332;50.208;18.988;2023-02-04T12:00:58;18.50;1.00
20349;DHT22;10332;50.208;18.988;2023-02-04T12:03:26;19.90;1.00
20349;DHT22;10332;50.208;18.988;2023-02-04T12:05:57;22.30;1.00
20349;DHT22;10332;50.208;18.988;2023-02-04T12:08:26;22.80;1.00
20349;DHT22;10332;50.208;18.988;2023-02-04T12:13:29;24.80;1.00
20349;DHT22;10332;50.208;18.988;2023-02-04T12:16:04;24.80;1.00
20349;DHT22;10332;50.208;18.988;2023-02-04T12:18:33;23.40;1.00
20349;DHT22;10332;50.208;18.988;2023-02-04T12:21:01;21.30;1.00
20349;DHT22;10332;50.208;18.988;2023-02-04T12:23:31;19.00;1.00
20349;DHT22;10332;50.208;18.988;2023-02-04T12:25:59;17.10;1.00
20349;DHT22;10332;50.208;18.988;2023-02-04T12:28:27;15.30;1.00
20349;DHT22;10332;50.208;18.988;2023-02-04T12:30:55;13.80;1.00
20349;DHT22;10332;50.208;18.988;2023-02-04T12:33:23;12.50;1.00
20349;DHT22;10332;50.208;18.988;2023-02-04T12:35:51;11.40;1.00
20349;DHT22;10332;50.208;18.988;2023-02-04T12:38:19;10.50;1.00
20349;DHT22;10332;50.208;18.988;2023-02-04T12:40:47;9.80;1.00
20349;DHT22;10332;50.208;18.988;2023-02-04T12:43:14;9.10;1.00
20349;DHT22;10332;50.208;18.988;2023-02-04T12:45:41;8.40;1.00
20349;DHT22;10332;50.208;18.988;2023-02-04T12:48:12;8.00;1.00
20349;DHT22;10332;50.208;18.988;2023-02-04T12:50:40;7.70;1.00
20349;DHT22;10332;50.208;18.988;2023-02-04T12:53:08;7.50;1.00
20349;DHT22;10332;50.208;18.988;2023-02-04T12:55:35;7.30;1.00
20349;DHT22;10332;50.208;18.988;2023-02-04T12:58:03;7.20;1.00
20349;DHT22;10332;50.208;18.988;2023-02-04T13:00:31;7.10;1.00
20349;DHT22;10332;50.208;18.988;2023-02-04T13:02:58;7.10;1.00
20349;DHT22;10332;50.208;18.988;2023-02-04T13:05:27;6.90;1.00
20349;DHT22;10332;50.208;18.988;2023-02-04T13:07:54;6.90;1.00
20349;DHT22;10332;50.208;18.988;2023-02-04T13:10:22;7.20;1.00
20349;DHT22;10332;50.208;18.988;2023-02-04T13:12:50;7.30;1.00
20349;DHT22;10332;50.208;18.988;2023-02-04T13:15:18;7.40;1.00
20349;DHT22;10332;50.208;18.988;2023-02-04T13:17:45;7.50;1.00
20349;DHT22;10332;50.208;18.988;2023-02-04T13:20:13;7.30;1.00
20349;DHT22;10332;50.208;18.988;2023-02-04T13:22:40;7.20;1.00
20349;DHT22;10332;50.208;18.988;2023-02-04T13:25:08;6.90;1.00
20349;DHT22;10332;50.208;18.988;2023-02-04T13:27:40;6.80;1.00
20349;DHT22;10332;50.208;18.988;2023-02-04T13:30:10;6.40;1.00
20349;DHT22;10332;50.208;18.988;2023-02-04T13:32:39;6.20;1.00
20349;DHT22;10332;50.208;18.988;2023-02-04T13:35:08;6.10;1.00
20349;DHT22;10332;50.208;18.988;2023-02-04T13:37:35;6.40;1.00
20349;DHT22;10332;50.208;18.988;2023-02-04T13:40:05;7.60;1.00
20349;DHT22;10332;50.208;18.988;2023-02-04T13:42:34;8.70;1.00
20349;DHT22;10332;50.208;18.988;2023-02-04T13:45:02;11.00;1.00
20349;DHT22;10332;50.208;18.988;2023-02-04T13:47:30;12.00;1.00
20349;DHT22;10332;50.208;18.988;2023-02-04T13:49:58;11.90;1.00
20349;DHT22;10332;50.208;18.988;2023-02-04T13:52:26;11.10;1.00
20349;DHT22;10332;50.208;18.988;2023-02-04T13:54:54;10.30;1.00
20349;DHT22;10332;50.208;18.988;2023-02-04T13:57:21;9.50;1.00
20349;DHT22;10332;50.208;18.988;2023-02-04T13:59:49;8.70;1.00
20349;DHT22;10332;50.208;18.988;2023-02-04T14:02:16;8.10;1.00
20349;DHT22;10332;50.208;18.988;2023-02-04T14:04:44;7.70;1.00
20349;DHT22;10332;50.208;18.988;2023-02-04T14:07:11;7.20;1.00
20349;DHT22;10332;50.208;18.988;2023-02-04T14:09:39;6.60;1.00
20349;DHT22;10332;50.208;18.988;2023-02-04T14:12:06;6.10;1.00
20349;DHT22;10332;50.208;18.988;2023-02-04T14:14:34;5.80;1.00
20349;DHT22;10332;50.208;18.988;2023-02-04T14:17:02;5.70;1.00
20349;DHT22;10332;50.208;18.988;2023-02-04T14:19:30;6.40;1.00
20349;DHT22;10332;50.208;18.988;2023-02-04T14:21:58;7.40;1.00
20349;DHT22;10332;50.208;18.988;2023-02-04T14:24:25;7.50;1.00
20349;DHT22;10332;50.208;18.988;2023-02-04T14:26:53;7.20;1.00
20349;DHT22;10332;50.208;18.988;2023-02-04T14:29:22;6.80;1.00
20349;DHT22;10332;50.208;18.988;2023-02-04T14:31:49;6.30;1.00
20349;DHT22;10332;50.208;18.988;2023-02-04T14:34:17;5.90;1.00
20349;DHT22;10332;50.208;18.988;2023-02-04T14:36:44;5.60;1.00
20349;DHT22;10332;50.208;18.988;2023-02-04T14:39:12;5.30;1.00
20349;DHT22;10332;50.208;18.988;2023-02-04T14:41:39;5.00;1.00
20349;DHT22;10332;50.208;18.988;2023-02-04T14:44:07;4.80;5.70
20349;DHT22;10332;50.208;18.988;2023-02-04T14:46:35;4.70;9.00
20349;DHT22;10332;50.208;18.988;2023-02-04T14:49:03;4.50;11.80
20349;DHT22;10332;50.208;18.988;2023-02-04T14:51:30;4.40;13.90
20349;DHT22;10332;50.208;18.988;2023-02-04T14:53:58;4.30;14.40
20349;DHT22;10332;50.208;18.988;2023-02-04T14:56:25;4.20;15.80
20349;DHT22;10332;50.208;18.988;2023-02-04T14:58:53;4.00;19.50
20349;DHT22;10332;50.208;18.988;2023-02-04T15:01:20;3.90;21.30
20349;DHT22;10332;50.208;18.988;2023-02-04T15:03:48;3.80;23.90
20349;DHT22;10332;50.208;18.988;2023-02-04T15:06:16;3.60;27.70
20349;DHT22;10332;50.208;18.988;2023-02-04T15:08:44;3.60;30.70
20349;DHT22;10332;50.208;18.988;2023-02-04T15:11:12;3.40;37.50
20349;DHT22;10332;50.208;18.988;2023-02-04T15:13:39;3.20;48.60
20349;DHT22;10332;50.208;18.988;2023-02-04T15:16:06;3.00;55.90
20349;DHT22;10332;50.208;18.988;2023-02-04T15:18:34;2.80;59.60
20349;DHT22;10332;50.208;18.988;2023-02-04T15:21:02;2.70;62.00
20349;DHT22;10332;50.208;18.988;2023-02-04T15:23:29;2.60;62.80
20349;DHT22;10332;50.208;18.988;2023-02-04T15:25:57;2.60;66.50
20349;DHT22;10332;50.208;18.988;2023-02-04T15:28:24;2.50;69.60
20349;DHT22;10332;50.208;18.988;2023-02-04T15:30:53;2.60;70.20
20349;DHT22;10332;50.208;18.988;2023-02-04T15:33:22;2.50;68.50
20349;DHT22;10332;50.208;18.988;2023-02-04T15:35:49;2.50;68.00
20349;DHT22;10332;50.208;18.988;2023-02-04T15:38:17;2.30;67.30
20349;DHT22;10332;50.208;18.988;2023-02-04T15:40:44;2.10;67.90
20349;DHT22;10332;50.208;18.988;2023-02-04T15:43:12;2.00;68.40
20349;DHT22;10332;50.208;18.988;2023-02-04T15:45:39;2.00;68.30
20349;DHT22;10332;50.208;18.988;2023-02-04T15:48:10;1.90;68.70
20349;DHT22;10332;50.208;18.988;2023-02-04T15:50:38;1.90;69.00
20349;DHT22;10332;50.208;18.988;2023-02-04T15:53:06;1.80;68.70